Schedule Details


Flight Number: CTN321
Departure: Ruzyne (LKPR) at 10:40
Arrival: Franjo Tudman (LDZA) at 12:00
Route: VOZ Z21 PISAM DCT MUREG DCT PETOV

Weather Information
LKPR 190930Z 20015KT 9999 SCT028 05/01 Q1014 NOSIG
LDZA 190930Z VRB02KT CAVOK 08/01 Q1022 NOSIG
Schedule Frequency

Route Map